createdAt,value
2017-06-28T00:00:21.818Z,99.99
2017-06-28T00:01:21.491Z,99.99
2017-06-28T00:02:21.808Z,99.99
2017-06-28T00:03:21.801Z,99.99
2017-06-28T00:04:21.797Z,99.99
2017-06-28T00:05:21.791Z,99.99
2017-06-28T00:06:21.464Z,99.99
2017-06-28T00:07:21.778Z,99.99
2017-06-28T00:08:21.798Z,99.99
2017-06-28T00:09:21.766Z,99.99
2017-06-28T00:10:21.759Z,99.99
2017-06-28T00:11:21.435Z,99.99
2017-06-28T00:12:21.747Z,99.99
2017-06-28T00:13:21.753Z,99.99
2017-06-28T00:14:21.740Z,99.99
2017-06-28T00:15:21.735Z,99.99
2017-06-28T00:16:21.731Z,99.99
2017-06-28T00:17:21.402Z,99.99
2017-06-28T00:18:21.742Z,99.99
2017-06-28T00:19:21.711Z,99.99
2017-06-28T00:20:21.385Z,99.99
2017-06-28T00:21:21.380Z,99.99
2017-06-28T00:22:21.694Z,99.99
2017-06-28T00:23:21.688Z,99.99
2017-06-28T00:24:21.683Z,99.99
2017-06-28T00:25:21.696Z,99.99
2017-06-28T00:26:21.688Z,99.99
2017-06-28T00:27:21.683Z,99.99
2017-06-28T00:28:21.690Z,99.99
2017-06-28T00:29:21.658Z,99.99
2017-06-28T00:30:21.670Z,99.99
2017-06-28T00:31:21.343Z,99.99
2017-06-28T00:32:21.635Z,99.99
2017-06-28T00:33:21.636Z,99.99
2017-06-28T00:34:21.625Z,99.99
2017-06-28T00:35:21.631Z,99.99
2017-06-28T00:36:21.616Z,99.99
2017-06-28T00:37:21.612Z,99.99
2017-06-28T00:38:21.289Z,99.99
2017-06-28T00:39:21.605Z,99.99
2017-06-28T00:40:21.294Z,99.99
2017-06-28T00:41:21.267Z,99.99
2017-06-28T00:42:21.583Z,99.99
2017-06-28T00:43:21.580Z,99.99
2017-06-28T00:44:21.587Z,99.99
2017-06-28T00:45:21.564Z,99.99
2017-06-28T00:46:21.237Z,99.99
2017-06-28T00:47:21.552Z,99.99
2017-06-28T00:48:21.227Z,99.99
2017-06-28T00:49:21.540Z,99.99
2017-06-28T00:50:21.539Z,99.99
2017-06-28T00:51:21.557Z,99.99
2017-06-28T00:52:21.522Z,99.99
2017-06-28T00:53:21.518Z,99.99
2017-06-28T00:54:21.515Z,99.99
2017-06-28T00:55:21.275Z,99.99
2017-06-28T00:56:21.180Z,99.99
2017-06-28T00:57:21.502Z,99.99
2017-06-28T00:58:21.507Z,99.99
2017-06-28T00:59:21.163Z,99.99
2017-06-28T01:00:21.485Z,99.99
2017-06-28T01:01:21.473Z,99.99
2017-06-28T01:02:21.466Z,99.99
2017-06-28T01:03:21.155Z,99.99
2017-06-28T01:04:21.471Z,99.99
2017-06-28T01:05:21.448Z,99.99
2017-06-28T01:06:21.445Z,99.99
2017-06-28T01:07:21.438Z,99.99
2017-06-28T01:08:21.451Z,99.99
2017-06-28T01:09:21.439Z,99.99
2017-06-28T01:10:21.422Z,99.99
2017-06-28T01:11:21.413Z,99.99
2017-06-28T01:12:21.418Z,99.99
2017-06-28T01:13:21.088Z,99.99
2017-06-28T01:14:21.398Z,99.99
2017-06-28T01:15:21.390Z,99.99
2017-06-28T01:16:21.412Z,99.99
2017-06-28T01:17:21.385Z,99.99
2017-06-28T01:18:21.072Z,99.99
2017-06-28T01:19:21.413Z,99.99
2017-06-28T01:20:21.361Z,99.99
2017-06-28T01:21:21.358Z,99.99
2017-06-28T01:22:21.042Z,99.99
2017-06-28T01:23:21.357Z,99.99
2017-06-28T01:24:21.338Z,99.99
2017-06-28T01:25:21.332Z,99.99
2017-06-28T01:26:21.007Z,99.99
2017-06-28T01:27:21.331Z,99.99
2017-06-28T01:28:21.318Z,99.99
2017-06-28T01:29:21.312Z,99.99
2017-06-28T01:30:21.312Z,99.99
2017-06-28T01:31:20.998Z,99.99
2017-06-28T01:32:20.973Z,99.99
2017-06-28T01:33:21.289Z,99.99
2017-06-28T01:34:21.282Z,99.99
2017-06-28T01:35:20.953Z,99.99
2017-06-28T01:36:20.948Z,99.99
2017-06-28T01:37:21.263Z,99.99
2017-06-28T01:38:21.257Z,99.99
2017-06-28T01:39:21.251Z,99.99
2017-06-28T01:40:21.244Z,99.99
2017-06-28T01:41:21.248Z,99.99
2017-06-28T01:42:21.230Z,99.99
2017-06-28T01:43:21.229Z,99.99
2017-06-28T01:44:21.244Z,99.99
2017-06-28T01:45:21.258Z,99.99
2017-06-28T01:46:20.896Z,99.99
2017-06-28T01:47:21.213Z,99.99
2017-06-28T01:48:21.200Z,99.99
2017-06-28T01:49:21.195Z,99.99
2017-06-28T01:50:20.876Z,99.99
2017-06-28T01:51:21.203Z,99.99
2017-06-28T01:52:20.876Z,99.99
2017-06-28T01:53:21.173Z,99.99
2017-06-28T01:54:21.169Z,99.99
2017-06-28T01:55:20.839Z,99.99
2017-06-28T01:56:20.830Z,99.99
2017-06-28T01:57:20.828Z,99.99
2017-06-28T01:58:21.146Z,99.99
2017-06-28T01:59:21.134Z,99.99
2017-06-28T02:00:20.816Z,99.99
2017-06-28T02:01:20.800Z,99.99
2017-06-28T02:02:21.122Z,99.99
2017-06-28T02:03:21.116Z,99.99
2017-06-28T02:04:21.116Z,99.99
2017-06-28T02:05:21.123Z,99.99
2017-06-28T02:06:21.093Z,99.99
2017-06-28T02:07:21.106Z,99.99
2017-06-28T02:08:21.083Z,99.99
2017-06-28T02:09:21.113Z,99.99
2017-06-28T02:10:21.070Z,99.99
2017-06-28T02:11:21.062Z,99.99
2017-06-28T02:12:21.060Z,99.99
2017-06-28T02:13:21.052Z,99.99
2017-06-28T02:14:21.049Z,99.99
2017-06-28T02:15:21.044Z,99.99
2017-06-28T02:16:21.034Z,99.99
2017-06-28T02:17:21.037Z,99.99
2017-06-28T02:18:20.704Z,99.99
2017-06-28T02:19:21.038Z,99.99
2017-06-28T02:20:21.024Z,99.99
2017-06-28T02:21:21.025Z,99.99
2017-06-28T02:22:20.679Z,99.99
2017-06-28T02:23:20.674Z,99.99
2017-06-28T02:24:20.669Z,99.99
2017-06-28T02:25:20.988Z,99.99
2017-06-28T02:26:20.977Z,99.99
2017-06-28T02:27:20.993Z,99.99
2017-06-28T02:28:20.963Z,99.99
2017-06-28T02:29:20.958Z,99.99
2017-06-28T02:30:20.979Z,99.99
2017-06-28T02:31:20.637Z,99.99
2017-06-28T02:32:20.939Z,99.99
2017-06-28T02:33:20.938Z,99.99
2017-06-28T02:34:20.607Z,99.99
2017-06-28T02:35:20.925Z,99.99
2017-06-28T02:36:20.594Z,99.99
2017-06-28T02:37:20.912Z,99.99
2017-06-28T02:38:20.585Z,99.99
2017-06-28T02:39:20.898Z,99.99
2017-06-28T02:40:20.896Z,99.99
2017-06-28T02:41:20.886Z,99.99
2017-06-28T02:42:20.570Z,99.99
2017-06-28T02:43:20.876Z,99.99
2017-06-28T02:44:20.878Z,99.99
2017-06-28T02:45:20.862Z,99.99
2017-06-28T02:46:20.859Z,99.99
2017-06-28T02:47:20.850Z,99.99
2017-06-28T02:48:20.846Z,99.99
2017-06-28T02:49:20.855Z,99.99
2017-06-28T02:50:20.831Z,99.99
2017-06-28T02:51:20.507Z,99.99
2017-06-28T02:52:20.823Z,99.99
2017-06-28T02:53:20.814Z,99.99
2017-06-28T02:54:20.809Z,99.99
2017-06-28T02:55:20.483Z,99.99
2017-06-28T02:56:20.476Z,99.99
2017-06-28T02:57:20.468Z,99.99
2017-06-28T02:58:20.786Z,99.99
2017-06-28T02:59:20.461Z,99.99
2017-06-28T03:00:20.771Z,99.99
2017-06-28T03:01:20.782Z,99.99
2017-06-28T03:02:20.761Z,99.99
2017-06-28T03:03:20.437Z,99.99
2017-06-28T03:04:20.751Z,99.99
2017-06-28T03:05:20.746Z,99.99
2017-06-28T03:06:20.737Z,99.99
2017-06-28T03:07:20.410Z,99.99
2017-06-28T03:08:20.404Z,99.99
2017-06-28T03:09:20.722Z,99.99
2017-06-28T03:10:20.771Z,99.99
2017-06-28T03:11:20.706Z,99.99
2017-06-28T03:12:20.379Z,99.99
2017-06-28T03:13:20.395Z,99.99
2017-06-28T03:14:20.693Z,99.99
2017-06-28T03:15:20.689Z,99.99
2017-06-28T03:16:20.358Z,99.99
2017-06-28T03:17:20.372Z,99.99
2017-06-28T03:18:20.668Z,99.99
2017-06-28T03:19:20.341Z,99.99
2017-06-28T03:20:20.657Z,99.99
2017-06-28T03:21:20.330Z,99.99
2017-06-28T03:22:20.662Z,99.99
2017-06-28T03:23:20.318Z,99.99
2017-06-28T03:24:20.313Z,99.99
2017-06-28T03:25:20.645Z,99.99
2017-06-28T03:26:20.301Z,99.99
2017-06-28T03:27:20.618Z,99.99
2017-06-28T03:28:20.293Z,99.99
2017-06-28T03:29:20.610Z,99.99
2017-06-28T03:30:20.600Z,99.99
2017-06-28T03:31:20.595Z,99.99
2017-06-28T03:32:20.595Z,99.99
2017-06-28T03:33:20.584Z,99.99
2017-06-28T03:34:20.582Z,99.99
2017-06-28T03:35:20.575Z,99.99
2017-06-28T03:36:20.595Z,99.99
2017-06-28T03:37:20.246Z,99.99
2017-06-28T03:38:20.560Z,99.99
2017-06-28T03:39:20.234Z,99.99
2017-06-28T03:40:20.549Z,99.99
2017-06-28T03:41:20.544Z,99.99
2017-06-28T03:42:20.582Z,99.99
2017-06-28T03:43:20.562Z,99.99
2017-06-28T03:44:20.531Z,99.99
2017-06-28T03:45:20.208Z,99.99
2017-06-28T03:46:20.523Z,99.99
2017-06-28T03:47:20.195Z,99.99
2017-06-28T03:48:20.241Z,99.99
2017-06-28T03:49:20.526Z,99.99
2017-06-28T03:50:20.523Z,99.99
2017-06-28T03:51:20.496Z,99.99
2017-06-28T03:52:20.190Z,99.99
2017-06-28T03:53:20.735Z,99.99
2017-06-28T03:54:20.165Z,99.99
2017-06-28T03:55:21.168Z,99.99
2017-06-28T03:56:20.495Z,99.99
2017-06-28T03:57:20.818Z,99.99
2017-06-28T03:58:20.878Z,99.99
2017-06-28T03:59:20.877Z,99.99
2017-06-28T04:00:20.465Z,99.99
2017-06-28T04:01:20.151Z,99.99
2017-06-28T04:02:20.478Z,99.99
2017-06-28T04:03:20.445Z,99.99
2017-06-28T04:04:20.389Z,99.99
2017-06-28T04:05:20.775Z,99.99
2017-06-28T04:06:20.564Z,99.99
2017-06-28T04:07:20.535Z,99.99
2017-06-28T04:08:20.428Z,99.99
2017-06-28T04:09:20.098Z,99.99
2017-06-28T04:10:20.450Z,99.99
2017-06-28T04:11:20.358Z,99.99
2017-06-28T04:12:20.840Z,99.99
2017-06-28T04:13:20.558Z,99.99
2017-06-28T04:14:20.527Z,99.99
2017-06-28T04:15:20.411Z,99.99
2017-06-28T04:16:20.388Z,99.99
2017-06-28T04:17:20.385Z,99.99
2017-06-28T04:18:20.632Z,99.99
2017-06-28T04:19:20.805Z,99.99
2017-06-28T04:20:20.554Z,99.99
2017-06-28T04:21:20.550Z,99.99
2017-06-28T04:22:20.093Z,99.99
2017-06-28T04:23:20.087Z,99.99
2017-06-28T04:24:20.401Z,99.99
2017-06-28T04:25:20.439Z,99.99
2017-06-28T04:26:20.745Z,99.99
2017-06-28T04:27:20.023Z,99.99
2017-06-28T04:28:20.363Z,99.99
2017-06-28T04:29:20.335Z,99.99
2017-06-28T04:30:20.332Z,99.99
2017-06-28T04:31:20.004Z,99.99
2017-06-28T04:32:20.326Z,99.99
2017-06-28T04:33:20.321Z,99.99
2017-06-28T04:34:20.317Z,99.99
2017-06-28T04:35:20.312Z,99.99
2017-06-28T04:36:20.331Z,99.99
2017-06-28T04:37:20.302Z,99.99
2017-06-28T04:38:19.976Z,99.99
2017-06-28T04:39:20.298Z,99.99
2017-06-28T04:40:19.970Z,99.99
2017-06-28T04:41:20.289Z,99.99
2017-06-28T04:42:20.284Z,99.99
2017-06-28T04:43:20.284Z,99.99
2017-06-28T04:44:20.285Z,99.99
2017-06-28T04:45:20.271Z,99.99
2017-06-28T04:46:20.288Z,99.99
2017-06-28T04:47:20.262Z,99.99
2017-06-28T04:48:20.260Z,99.99
2017-06-28T04:49:20.270Z,99.99
2017-06-28T04:50:20.255Z,99.99
2017-06-28T04:51:20.263Z,99.99
2017-06-28T04:52:20.266Z,99.99
2017-06-28T04:53:20.243Z,99.99
2017-06-28T04:54:20.273Z,99.99
2017-06-28T04:55:20.235Z,99.99
2017-06-28T04:56:20.245Z,99.99
2017-06-28T04:57:20.233Z,99.99
2017-06-28T04:58:20.225Z,99.99
2017-06-28T04:59:20.223Z,99.99
2017-06-28T05:00:20.241Z,99.99
2017-06-28T05:01:19.893Z,99.99
2017-06-28T05:02:20.210Z,99.99
2017-06-28T05:03:20.209Z,99.99
2017-06-28T05:04:19.887Z,99.99
2017-06-28T05:05:20.208Z,99.99
2017-06-28T05:06:19.879Z,99.99
2017-06-28T05:07:20.209Z,99.99
2017-06-28T05:08:20.193Z,99.99
2017-06-28T05:09:20.195Z,99.99
2017-06-28T05:10:19.865Z,99.99
2017-06-28T05:11:20.185Z,99.99
2017-06-28T05:12:20.186Z,99.99
2017-06-28T05:13:20.185Z,99.99
2017-06-28T05:14:20.229Z,99.99
2017-06-28T05:15:19.854Z,99.99
2017-06-28T05:16:20.173Z,99.99
2017-06-28T05:17:19.849Z,99.99
2017-06-28T05:18:20.171Z,99.99
2017-06-28T05:19:20.180Z,99.99
2017-06-28T05:20:20.167Z,99.99
2017-06-28T05:21:20.163Z,99.99
2017-06-28T05:22:20.159Z,99.99
2017-06-28T05:23:20.157Z,99.99
2017-06-28T05:24:20.153Z,99.99
2017-06-28T05:25:20.156Z,99.99
2017-06-28T05:26:20.150Z,99.99
2017-06-28T05:27:19.827Z,99.99
2017-06-28T05:28:20.150Z,99.99
2017-06-28T05:29:20.149Z,99.99
2017-06-28T05:30:19.823Z,99.99
2017-06-28T05:31:20.141Z,99.99
2017-06-28T05:32:20.156Z,99.99
2017-06-28T05:33:20.140Z,99.99
2017-06-28T05:34:20.137Z,99.99
2017-06-28T05:35:19.814Z,99.99
2017-06-28T05:36:20.137Z,99.99
2017-06-28T05:37:20.148Z,99.99
2017-06-28T05:38:19.816Z,99.99
2017-06-28T05:39:20.132Z,99.99
2017-06-28T05:40:20.129Z,99.99
2017-06-28T05:41:20.131Z,99.99
2017-06-28T05:42:19.818Z,99.99
2017-06-28T05:43:19.821Z,99.99
2017-06-28T05:44:19.829Z,99.99
2017-06-28T05:45:20.127Z,99.99
2017-06-28T05:46:20.123Z,99.99
2017-06-28T05:47:20.122Z,99.99
2017-06-28T05:48:20.121Z,99.99
2017-06-28T05:49:20.121Z,99.99
2017-06-28T05:50:20.119Z,99.99
2017-06-28T05:51:20.118Z,99.99
2017-06-28T05:52:20.142Z,99.99
2017-06-28T05:53:19.800Z,99.99
2017-06-28T05:54:20.129Z,98.54
2017-06-28T05:55:20.118Z,97.67
2017-06-28T05:56:19.795Z,97.28
2017-06-28T05:57:20.117Z,96.99
2017-06-28T05:58:19.819Z,97.57
2017-06-28T05:59:20.116Z,99.5
2017-06-28T06:00:20.115Z,99.99
2017-06-28T06:01:20.117Z,99.99
2017-06-28T06:02:20.116Z,99.99
2017-06-28T06:03:19.797Z,99.99
2017-06-28T06:04:20.122Z,99.99
2017-06-28T06:05:20.117Z,99.99
2017-06-28T06:06:20.115Z,99.3
2017-06-28T06:07:19.798Z,98.63
2017-06-28T06:08:20.137Z,99.5
2017-06-28T06:09:19.798Z,99.99
2017-06-28T06:10:20.155Z,99.99
2017-06-28T06:11:20.132Z,99.4
2017-06-28T06:12:19.798Z,99.45
2017-06-28T06:13:19.798Z,98.68
2017-06-28T06:14:19.806Z,96.89
2017-06-28T06:15:20.123Z,95.16
2017-06-28T06:16:20.125Z,93.66
2017-06-28T06:17:20.121Z,92.8
2017-06-28T06:18:20.128Z,90.72
2017-06-28T06:19:20.124Z,89.7
2017-06-28T06:20:20.129Z,89.12
2017-06-28T06:21:20.127Z,89.12
2017-06-28T06:22:20.125Z,88.25
2017-06-28T06:23:20.127Z,88.15
2017-06-28T06:24:19.810Z,87.77
2017-06-28T06:25:19.832Z,86.8
2017-06-28T06:26:20.133Z,86.32
2017-06-28T06:27:20.130Z,86.9
2017-06-28T06:28:20.143Z,86.13
2017-06-28T06:29:19.816Z,86.9
2017-06-28T06:30:20.138Z,87.48
2017-06-28T06:31:19.817Z,86.61
2017-06-28T06:32:19.821Z,86.9
2017-06-28T06:33:19.818Z,86.03
2017-06-28T06:34:20.146Z,84.24
2017-06-28T06:35:20.145Z,83.47
2017-06-28T06:36:20.146Z,81.73
2017-06-28T06:37:20.150Z,80.57
2017-06-28T06:38:20.174Z,79.22
2017-06-28T06:39:20.154Z,78.73
2017-06-28T06:40:20.159Z,79.6
2017-06-28T06:41:19.851Z,79.93
2017-06-28T06:42:20.164Z,79.06
2017-06-28T06:43:19.841Z,78.29
2017-06-28T06:44:20.184Z,78.09
2017-06-28T06:45:20.164Z,77.07
2017-06-28T06:46:20.167Z,75.17
2017-06-28T06:47:19.861Z,75.46
2017-06-28T06:48:20.176Z,73.66
2017-06-28T06:49:20.177Z,72.21
2017-06-28T06:50:19.859Z,70.37
2017-06-28T06:51:20.231Z,70.95
2017-06-28T06:52:20.185Z,70.95
2017-06-28T06:53:20.185Z,70.62
2017-06-28T06:54:20.198Z,73.24
2017-06-28T06:55:20.191Z,73.88
2017-06-28T06:56:20.196Z,73.68
2017-06-28T06:57:20.243Z,74.27
2017-06-28T06:58:20.201Z,75.2
2017-06-28T06:59:20.208Z,75.58
2017-06-28T07:00:20.205Z,74.71
2017-06-28T07:01:20.211Z,76.26
2017-06-28T07:02:20.234Z,76.16
2017-06-28T07:03:20.213Z,76.26
2017-06-28T07:04:19.905Z,76.93
2017-06-28T07:05:20.220Z,75.64
2017-06-28T07:06:20.248Z,75.06
2017-06-28T07:07:19.922Z,74.29
2017-06-28T07:08:19.937Z,75.16
2017-06-28T07:09:20.228Z,75.2
2017-06-28T07:10:20.229Z,75.58
2017-06-28T07:11:19.913Z,75.06
2017-06-28T07:12:19.924Z,74.62
2017-06-28T07:13:19.918Z,74.07
2017-06-28T07:14:20.244Z,72.75
2017-06-28T07:15:20.244Z,68.3
2017-06-28T07:16:20.249Z,65.34
2017-06-28T07:17:20.250Z,62.98
2017-06-28T07:18:19.935Z,60.19
2017-06-28T07:19:20.260Z,58.28
2017-06-28T07:20:19.940Z,55.03
2017-06-28T07:21:19.944Z,53.33
2017-06-28T07:22:19.949Z,52.22
2017-06-28T07:23:20.285Z,48.93
2017-06-28T07:24:19.969Z,48.97
2017-06-28T07:25:20.295Z,48.51
2017-06-28T07:26:20.290Z,45.33
2017-06-28T07:27:20.299Z,44.28
2017-06-28T07:28:20.309Z,42.56
2017-06-28T07:29:19.989Z,41.8
2017-06-28T07:30:19.994Z,42.11
2017-06-28T07:31:20.380Z,40.09
2017-06-28T07:32:20.011Z,37.66
2017-06-28T07:33:20.346Z,38.37
2017-06-28T07:34:20.023Z,38.37
2017-06-28T07:35:20.358Z,36.32
2017-06-28T07:36:20.359Z,35.54
2017-06-28T07:37:20.048Z,38.01
2017-06-28T07:38:20.383Z,37.52
2017-06-28T07:39:20.459Z,36.36
2017-06-28T07:40:20.400Z,35.75
2017-06-28T07:41:20.079Z,36.13
2017-06-28T07:42:20.410Z,36.39
2017-06-28T07:43:20.422Z,36.49
2017-06-28T07:44:20.445Z,35.72
2017-06-28T07:45:20.461Z,36.6
2017-06-28T07:46:20.450Z,35.64
2017-06-28T07:47:20.135Z,35.83
2017-06-28T07:48:20.485Z,36.39
2017-06-28T07:49:20.477Z,38.23
2017-06-28T07:50:20.181Z,38.2
2017-06-28T07:51:20.513Z,40.41
2017-06-28T07:52:20.526Z,40.84
2017-06-28T07:53:20.211Z,43.24
2017-06-28T07:54:20.211Z,46.34
2017-06-28T07:55:20.529Z,46.51
2017-06-28T07:56:20.542Z,46.97
2017-06-28T07:57:20.237Z,47.92
2017-06-28T07:58:20.563Z,47.13
2017-06-28T07:59:20.568Z,47.1
2017-06-28T08:00:20.569Z,48.54
2017-06-28T08:01:20.580Z,50.46
2017-06-28T08:02:20.586Z,52.67
2017-06-28T08:03:20.592Z,54.49
2017-06-28T08:04:20.280Z,55.04
2017-06-28T08:05:20.610Z,56.67
2017-06-28T08:06:20.615Z,57.64
2017-06-28T08:07:20.621Z,54.24
2017-06-28T08:08:20.319Z,55.79
2017-06-28T08:09:20.636Z,58.77
2017-06-28T08:10:20.642Z,57.12
2017-06-28T08:11:20.325Z,58.84
2017-06-28T08:12:20.335Z,59.2
2017-06-28T08:13:20.664Z,61.14
2017-06-28T08:14:20.668Z,62.17
2017-06-28T08:15:20.673Z,62.07
2017-06-28T08:16:20.682Z,64.01
2017-06-28T08:17:20.690Z,65.92
2017-06-28T08:18:20.367Z,66.78
2017-06-28T08:19:20.370Z,64.37
2017-06-28T08:20:20.698Z,67.53
2017-06-28T08:21:20.717Z,65.2
2017-06-28T08:22:20.720Z,65.37
2017-06-28T08:23:20.714Z,68.08
2017-06-28T08:24:20.722Z,68.17
2017-06-28T08:25:20.400Z,68.66
2017-06-28T08:26:20.725Z,68.95
2017-06-28T08:27:20.740Z,69.43
2017-06-28T08:28:20.736Z,68.37
2017-06-28T08:29:20.739Z,67.4
2017-06-28T08:30:20.758Z,67.36
2017-06-28T08:31:20.762Z,66.98
2017-06-28T08:32:20.749Z,68.24
2017-06-28T08:33:20.432Z,67.43
2017-06-28T08:34:20.764Z,67.33
2017-06-28T08:35:20.761Z,70.04
2017-06-28T08:36:20.784Z,71.1
2017-06-28T08:37:20.770Z,71.06
2017-06-28T08:38:20.454Z,72.03
2017-06-28T08:39:20.775Z,72.8
2017-06-28T08:40:20.457Z,73.86
2017-06-28T08:41:20.458Z,75.09
2017-06-28T08:42:20.460Z,76.24
2017-06-28T08:43:20.465Z,76.82
2017-06-28T08:44:20.471Z,77.36
2017-06-28T08:45:20.800Z,78.91
2017-06-28T08:46:20.793Z,79.64
2017-06-28T08:47:20.795Z,79.83
2017-06-28T08:48:20.799Z,80.79
2017-06-28T08:49:20.807Z,81.47
2017-06-28T08:50:20.814Z,81.66
2017-06-28T08:51:20.806Z,81.76
2017-06-28T08:52:20.839Z,81.81
2017-06-28T08:53:20.812Z,83.64
2017-06-28T08:54:20.836Z,84.8
2017-06-28T08:55:20.815Z,83.94
2017-06-28T08:56:20.491Z,84.32
2017-06-28T08:57:20.815Z,84.22
2017-06-28T08:58:20.817Z,84.8
2017-06-28T08:59:20.820Z,86.44
2017-06-28T09:00:20.837Z,88.23
2017-06-28T09:01:20.503Z,90.92
2017-06-28T09:02:20.824Z,90.88
2017-06-28T09:03:20.505Z,91.64
2017-06-28T09:04:20.830Z,92.71
2017-06-28T09:05:20.837Z,94.01
2017-06-28T09:06:20.829Z,94.87
2017-06-28T09:07:20.846Z,95.94
2017-06-28T09:08:20.835Z,96.61
2017-06-28T09:09:20.511Z,97.14
2017-06-28T09:10:20.837Z,97.72
2017-06-28T09:11:20.835Z,96.46
2017-06-28T09:12:20.518Z,95.98
2017-06-28T09:13:20.844Z,96.08
2017-06-28T09:14:20.840Z,96.85
2017-06-28T09:15:20.844Z,97.04
2017-06-28T09:16:20.521Z,97.33
2017-06-28T09:17:20.844Z,99.55
2017-06-28T09:18:20.844Z,97.72
2017-06-28T09:19:20.528Z,97.72
2017-06-28T09:20:20.846Z,96.27
2017-06-28T09:21:20.846Z,93.09
2017-06-28T09:22:20.531Z,92.71
2017-06-28T09:23:20.853Z,92.51
2017-06-28T09:24:20.856Z,93.09
2017-06-28T09:25:20.854Z,94.1
2017-06-28T09:26:20.553Z,93.48
2017-06-28T09:27:20.537Z,92.56
2017-06-28T09:28:20.859Z,91.69
2017-06-28T09:29:20.540Z,92.08
2017-06-28T09:30:20.539Z,92.76
2017-06-28T09:31:20.860Z,91.21
2017-06-28T09:32:20.863Z,90.34
2017-06-28T09:33:20.882Z,91.5
2017-06-28T09:34:20.867Z,91.6
2017-06-28T09:35:20.864Z,92.32
2017-06-28T09:36:20.864Z,93.19
2017-06-28T09:37:20.867Z,94.64
2017-06-28T09:38:20.868Z,93.19
2017-06-28T09:39:20.547Z,93.87
2017-06-28T09:40:20.869Z,94.15
2017-06-28T09:41:20.870Z,96.56
2017-06-28T09:42:20.557Z,98.29
2017-06-28T09:43:20.893Z,99.69
2017-06-28T09:44:20.553Z,99.99
2017-06-28T09:45:20.549Z,99.99
2017-06-28T09:46:20.873Z,99.99
2017-06-28T09:47:20.872Z,99.99
2017-06-28T09:48:20.875Z,99.99
2017-06-28T09:49:20.876Z,99.99
2017-06-28T09:50:20.873Z,99.99
2017-06-28T09:51:20.570Z,99.99
2017-06-28T09:52:20.558Z,99.99
2017-06-28T09:53:20.880Z,99.99
2017-06-28T09:54:20.894Z,99.99
2017-06-28T09:55:20.878Z,99.99
2017-06-28T09:56:20.556Z,99.99
2017-06-28T09:57:20.878Z,99.99
2017-06-28T09:58:20.884Z,99.99
2017-06-28T09:59:20.880Z,99.99
2017-06-28T10:00:20.892Z,99.99
2017-06-28T10:01:20.561Z,99.99
2017-06-28T10:02:20.882Z,99.99
2017-06-28T10:03:20.882Z,99.99
2017-06-28T10:04:20.885Z,99.99
2017-06-28T10:05:20.561Z,99.99
2017-06-28T10:06:20.899Z,99.99
2017-06-28T10:07:20.884Z,99.99
2017-06-28T10:08:20.885Z,96.99
2017-06-28T10:09:20.566Z,94
2017-06-28T10:10:20.889Z,94.05
2017-06-28T10:11:20.889Z,90.67
2017-06-28T10:12:20.567Z,90.72
2017-06-28T10:13:20.574Z,92.36
2017-06-28T10:14:20.897Z,89.03
2017-06-28T10:15:20.573Z,86.65
2017-06-28T10:16:20.572Z,84.38
2017-06-28T10:17:20.896Z,82.68
2017-06-28T10:18:20.578Z,83.26
2017-06-28T10:19:20.900Z,81.27
2017-06-28T10:20:20.901Z,79.24
2017-06-28T10:21:20.903Z,77.92
2017-06-28T10:22:20.906Z,76.28
2017-06-28T10:23:20.588Z,75.44
2017-06-28T10:24:20.911Z,72.15
2017-06-28T10:25:20.914Z,72.24
2017-06-28T10:26:20.594Z,69.57
2017-06-28T10:27:20.924Z,68.4
2017-06-28T10:28:20.974Z,69.95
2017-06-28T10:29:20.926Z,70.05
2017-06-28T10:30:20.608Z,70.76
2017-06-28T10:31:20.610Z,70.44
2017-06-28T10:32:20.935Z,69.95
2017-06-28T10:33:20.940Z,69.76
2017-06-28T10:34:20.947Z,69.08
2017-06-28T10:35:20.954Z,69.18
2017-06-28T10:36:20.948Z,67.63
2017-06-28T10:37:20.950Z,66.66
2017-06-28T10:38:20.955Z,66.75
2017-06-28T10:39:20.637Z,68.95
2017-06-28T10:40:20.641Z,70.25
2017-06-28T10:41:20.969Z,68.89
2017-06-28T10:42:20.970Z,68.7
2017-06-28T10:43:20.652Z,67.37
2017-06-28T10:44:20.980Z,69.12
2017-06-28T10:45:20.659Z,65.14
2017-06-28T10:46:20.986Z,64.27
2017-06-28T10:47:20.669Z,63.85
2017-06-28T10:48:20.997Z,65.92
2017-06-28T10:49:20.677Z,66.89
2017-06-28T10:50:21.004Z,64.75
2017-06-28T10:51:21.006Z,64.37
2017-06-28T10:52:21.017Z,63.27
2017-06-28T10:53:20.693Z,64.53
2017-06-28T10:54:21.021Z,63.46
2017-06-28T10:55:20.701Z,65.3
2017-06-28T10:56:20.707Z,66.37
2017-06-28T10:57:20.710Z,66.66
2017-06-28T10:58:20.717Z,65.2
2017-06-28T10:59:21.059Z,65.17
2017-06-28T11:00:21.064Z,64.3
2017-06-28T11:01:20.731Z,65.95
2017-06-28T11:02:21.052Z,67.02
2017-06-28T11:03:21.058Z,67.66
2017-06-28T11:04:21.063Z,67.76
2017-06-28T11:05:21.083Z,67.72
2017-06-28T11:06:20.750Z,68.01
2017-06-28T11:07:21.072Z,68.98
2017-06-28T11:08:21.077Z,70.1
2017-06-28T11:09:20.767Z,70.4
2017-06-28T11:10:21.084Z,69.04
2017-06-28T11:11:21.087Z,69.62
2017-06-28T11:12:21.089Z,70.46
2017-06-28T11:13:21.096Z,73.46
2017-06-28T11:14:20.779Z,73.16
2017-06-28T11:15:21.099Z,72.2
2017-06-28T11:16:20.782Z,70.56
2017-06-28T11:17:21.107Z,71.72
2017-06-28T11:18:21.112Z,66.4
2017-06-28T11:19:21.139Z,65.82
2017-06-28T11:20:20.795Z,66.3
2017-06-28T11:21:21.120Z,64.66
2017-06-28T11:22:20.801Z,65.72
2017-06-28T11:23:21.128Z,67.46
2017-06-28T11:24:21.131Z,66.88
2017-06-28T11:25:21.135Z,67.82
2017-06-28T11:26:21.135Z,67.08
2017-06-28T11:27:21.152Z,67.66
2017-06-28T11:28:20.826Z,66.69
2017-06-28T11:29:21.146Z,66.88
2017-06-28T11:30:21.145Z,65.82
2017-06-28T11:31:21.152Z,66.14
2017-06-28T11:32:21.154Z,66.72
2017-06-28T11:33:20.837Z,66.82
2017-06-28T11:34:21.163Z,64.92
2017-06-28T11:35:20.843Z,65.88
2017-06-28T11:36:21.168Z,66.37
2017-06-28T11:37:20.852Z,66.47
2017-06-28T11:38:20.856Z,66.6
2017-06-28T11:39:21.182Z,66.78
2017-06-28T11:40:20.859Z,67.08
2017-06-28T11:41:21.185Z,66.02
2017-06-28T11:42:21.185Z,62.56
2017-06-28T11:43:21.196Z,63.24
2017-06-28T11:44:21.208Z,62.34
2017-06-28T11:45:21.198Z,63.24
2017-06-28T11:46:21.202Z,61.18
2017-06-28T11:47:21.206Z,63.62
2017-06-28T11:48:21.233Z,62.07
2017-06-28T11:49:21.216Z,62.46
2017-06-28T11:50:21.216Z,64.11
2017-06-28T11:51:21.223Z,63.04
2017-06-28T11:52:20.926Z,63.43
2017-06-28T11:53:20.908Z,63.24
2017-06-28T11:54:21.237Z,62.66
2017-06-28T11:55:21.237Z,63.62
2017-06-28T11:56:21.242Z,63.53
2017-06-28T11:57:21.245Z,64.17
2017-06-28T11:58:21.249Z,65.05
2017-06-28T11:59:20.938Z,65.14
2017-06-28T12:00:20.936Z,65.92
2017-06-28T12:01:20.942Z,66.56
2017-06-28T12:02:20.944Z,66.56
2017-06-28T12:03:20.947Z,66.33
2017-06-28T12:04:21.274Z,67.49
2017-06-28T12:05:21.277Z,67.59
2017-06-28T12:06:21.284Z,67.98
2017-06-28T12:07:21.286Z,68.37
2017-06-28T12:08:21.299Z,67.98
2017-06-28T12:09:21.291Z,69.62
2017-06-28T12:10:21.294Z,68.17
2017-06-28T12:11:20.991Z,68.08
2017-06-28T12:12:21.300Z,67.49
2017-06-28T12:13:21.305Z,67.98
2017-06-28T12:14:21.312Z,69.24
2017-06-28T12:15:21.310Z,68.66
2017-06-28T12:16:21.313Z,68.95
2017-06-28T12:17:21.316Z,70.36
2017-06-28T12:18:21.001Z,69.68
2017-06-28T12:19:21.010Z,70.17
2017-06-28T12:20:21.332Z,67.17
2017-06-28T12:21:21.330Z,69.82
2017-06-28T12:22:21.335Z,68.56
2017-06-28T12:23:21.338Z,68.17
2017-06-28T12:24:21.346Z,68.21
2017-06-28T12:25:21.345Z,67.91
2017-06-28T12:26:21.347Z,64.85
2017-06-28T12:27:21.352Z,63.98
2017-06-28T12:28:21.361Z,64.2
2017-06-28T12:29:21.357Z,62.46
2017-06-28T12:30:21.365Z,62.46
2017-06-28T12:31:21.368Z,61.98
2017-06-28T12:32:21.368Z,60.43
2017-06-28T12:33:21.382Z,60.43
2017-06-28T12:34:21.389Z,60.24
2017-06-28T12:35:21.060Z,60.91
2017-06-28T12:36:21.066Z,59.94
2017-06-28T12:37:21.387Z,59.94
2017-06-28T12:38:21.072Z,62.63
2017-06-28T12:39:21.079Z,62.14
2017-06-28T12:40:21.080Z,61.85
2017-06-28T12:41:21.405Z,61.76
2017-06-28T12:42:21.405Z,60.4
2017-06-28T12:43:21.090Z,61.46
2017-06-28T12:44:21.415Z,61.66
2017-06-28T12:45:21.418Z,60.88
2017-06-28T12:46:21.448Z,60.98
2017-06-28T12:47:21.446Z,61.66
2017-06-28T12:48:21.112Z,61.85
2017-06-28T12:49:21.434Z,59.17
2017-06-28T12:50:21.437Z,61.27
2017-06-28T12:51:21.443Z,61.88
2017-06-28T12:52:21.125Z,62.17
2017-06-28T12:53:21.450Z,60.43
2017-06-28T12:54:21.137Z,60.82